Svitzer Leixoes — CSXW6 — position and weather

sailwx.info

Track history (hours):
 
Tides and Currents Weather Stations Pressure Air Temp Water Temp Dewpoint Dewpoint Depression Visibility Wind Speed Wind Dir Waves Ship Positions

Svitzer Leixoes

Last reported at 2016-Jul-01 20:27 UTC. Time now 2016-Jul-01 20:53 UTC.
Position N 38°42' W 009°10'.

Length 28 m; draft 3.6 m.

Type: Towing. MMSI: 263622000.

Date/timePositionNaut miles runAvg speedWind from/ knotsBaromVisibWave heightAir tempDewpointWater temp
2016-Jul-01 20:27N 38°42' W 009°10'0 0.0
2016-Jul-01 19:30N 38°42' W 009°10'3 3.0
2016-Jul-01 18:33N 38°41' W 009°13'2 2.1
2016-Jul-01 17:33N 38°41' W 009°15'5 4.6
2016-Jul-01 16:32N 38°42' W 009°10'0 0.0
2016-Jul-01 15:33N 38°42' W 009°10'0 0.0
2016-Jul-01 14:33N 38°42' W 009°10'0 0.0
2016-Jul-01 13:31N 38°42' W 009°10'0 0.0
2016-Jul-01 12:33N 38°42' W 009°10'0 0.0
2016-Jul-01 11:32N 38°42' W 009°10'0 0.0
2016-Jul-01 10:31N 38°42' W 009°10'0 0.0
2016-Jul-01 09:30N 38°42' W 009°10'0 0.1
2016-Jul-01 08:33N 38°42' W 009°10'1 0.5
2016-Jul-01 07:32N 38°42' W 009°10'1 0.6
2016-Jul-01 06:31N 38°42' W 009°10'0 0.0
2016-Jul-01 05:27N 38°42' W 009°10'0 0.0
2016-Jul-01 04:30N 38°42' W 009°10'0 0.0
2016-Jul-01 03:27N 38°42' W 009°10'0 0.0
2016-Jul-01 02:31N 38°42' W 009°10'0 0.0
2016-Jul-01 01:26N 38°42' W 009°10'0 0.0
2016-Jul-01 00:24N 38°42' W 009°10'0 0.0
2016-Jun-30 23:29N 38°42' W 009°10'0 0.0
2016-Jun-30 22:26N 38°42' W 009°10'0 0.0
2016-Jun-30 21:33N 38°42' W 009°10'0 0.0
2016-Jun-30 20:33N 38°42' W 009°10'0 0.0
2016-Jun-30 19:22N 38°42' W 009°10'0 0.0
2016-Jun-30 18:27N 38°42' W 009°10'0 0.0
2016-Jun-30 17:30N 38°42' W 009°10'2 2.0
2016-Jun-30 16:33N 38°40' W 009°09'2 1.9
2016-Jun-30 15:32N 38°42' W 009°10'0 0.0
2016-Jun-30 14:32N 38°42' W 009°10'0 0.0
2016-Jun-30 13:29N 38°42' W 009°10'0 0.0
2016-Jun-30 12:32N 38°42' W 009°10'0 0.0
2016-Jun-30 11:33N 38°42' W 009°10'0 0.0
2016-Jun-30 10:28N 38°42' W 009°10'0 0.0
2016-Jun-30 09:33N 38°42' W 009°10'0 0.0
2016-Jun-30 08:33N 38°42' W 009°10'0 0.0
2016-Jun-30 07:33N 38°42' W 009°10'2 1.5
2016-Jun-30 06:33N 38°42' W 009°08'0 0.3
2016-Jun-30 05:33N 38°42' W 009°07'2 1.6
2016-Jun-30 04:29N 38°42' W 009°10'0 0.0
2016-Jun-30 03:31N 38°42' W 009°10'0 0.0
2016-Jun-30 02:32N 38°42' W 009°10'0 0.0
2016-Jun-30 01:33N 38°42' W 009°10'0 0.0
2016-Jun-30 00:33N 38°42' W 009°10'0 0.0
2016-Jun-29 23:33N 38°42' W 009°10'0 0.0
2016-Jun-29 22:29N 38°42' W 009°10'4 3.9
2016-Jun-29 21:33N 38°41' W 009°14'4 3.8
2016-Jun-29 20:33N 38°42' W 009°09'0 0.1
2016-Jun-29 19:33N 38°42' W 009°10'0 0.0
2016-Jun-29 18:33N 38°42' W 009°10'0 0.0
2016-Jun-29 17:33N 38°42' W 009°10'0 0.0
2016-Jun-29 16:33N 38°42' W 009°10'0 0.0
2016-Jun-29 15:32N 38°42' W 009°10'0 0.0
2016-Jun-29 14:31N 38°42' W 009°10'0 0.0
2016-Jun-29 13:33N 38°42' W 009°10'0 0.0
2016-Jun-29 12:29N 38°42' W 009°10'0 0.0
2016-Jun-29 11:33N 38°42' W 009°10'2 1.8
2016-Jun-29 10:33N 38°41' W 009°11'1 1.1
2016-Jun-29 09:33N 38°41' W 009°12'2 2.5
2016-Jun-29 08:33N 38°42' W 009°10'0 0.0
2016-Jun-29 07:32N 38°42' W 009°10'0 0.0
2016-Jun-29 06:29N 38°42' W 009°10'0 0.0
2016-Jun-29 05:33N 38°42' W 009°10'0 0.0
2016-Jun-29 04:32N 38°42' W 009°10'0 0.0
2016-Jun-29 03:33N 38°42' W 009°10'0 0.0
2016-Jun-29 02:32N 38°42' W 009°10'0 0.0
2016-Jun-29 01:33N 38°42' W 009°10'0 0.0
2016-Jun-29 00:29N 38°42' W 009°10'0 0.0
2016-Jun-28 23:32N 38°42' W 009°10'0 0.0
2016-Jun-28 22:29N 38°42' W 009°10'0 0.0
2016-Jun-28 21:32N 38°42' W 009°10'0 0.0
2016-Jun-28 20:33N 38°42' W 009°10'0 0.0
2016-Jun-28 19:33N 38°42' W 009°10'0 0.0
2016-Jun-28 18:33N 38°42' W 009°10'0 0.0
2016-Jun-28 17:32N 38°42' W 009°10'0 0.0
2016-Jun-28 16:22N 38°42' W 009°10'0 0.0
2016-Jun-28 15:29N 38°42' W 009°10'0 0.0
2016-Jun-28 14:33N 38°42' W 009°10'0 0.0
2016-Jun-28 13:31N 38°42' W 009°10'0 0.0
2016-Jun-28 12:28N 38°42' W 009°10'0 0.0
2016-Jun-28 11:33N 38°42' W 009°10'0 0.0
2016-Jun-28 10:33N 38°42' W 009°10'0 0.0
2016-Jun-28 09:28N 38°42' W 009°10'0 0.0
2016-Jun-28 08:33N 38°42' W 009°10'1 0.7
2016-Jun-28 07:33N 38°42' W 009°10'0 0.4
2016-Jun-28 06:32N 38°42' W 009°10'0 0.2
2016-Jun-28 04:32N 38°42' W 009°10'0 0.0
2016-Jun-28 03:33N 38°42' W 009°10'0 0.0
2016-Jun-28 02:31N 38°42' W 009°10'0 0.0
2016-Jun-28 01:33N 38°42' W 009°10'0 0.0
2016-Jun-28 00:29N 38°42' W 009°10'4 4.2
2016-Jun-27 23:33N 38°41' W 009°14'2 1.7
2016-Jun-27 22:33N 38°41' W 009°12'2 2.3
2016-Jun-27 21:33N 38°42' W 009°10'0 0.0
2016-Jun-27 20:33N 38°42' W 009°10'3 2.7
2016-Jun-27 19:33N 38°41' W 009°13'3 2.6
2016-Jun-27 18:33N 38°42' W 009°10'0 0.0
2016-Jun-27 17:27N 38°42' W 009°10'0 0.0
2016-Jun-27 16:30N 38°42' W 009°10'0 0.0
2016-Jun-27 15:33N 38°42' W 009°10'0 0.0
2016-Jun-27 14:33N 38°42' W 009°10'0 0.0
2016-Jun-27 13:33N 38°42' W 009°10'0 0.0
2016-Jun-27 12:33N 38°42' W 009°10'0 0.0
2016-Jun-27 11:31N 38°42' W 009°10'0 0.0
2016-Jun-27 10:19N 38°42' W 009°10'0 0.0
2016-Jun-27 09:30N 38°42' W 009°10'0 0.1
2016-Jun-27 08:33N 38°42' W 009°09'5 4.6
2016-Jun-27 07:33N 38°41' W 009°04'3 3.4
2016-Jun-27 06:33N 38°41' W 009°08'2 1.5
2016-Jun-27 05:30N 38°42' W 009°10'0 0.0
2016-Jun-27 04:33N 38°42' W 009°10'0 0.0
2016-Jun-27 03:31N 38°42' W 009°10'0 0.0
2016-Jun-27 02:33N 38°42' W 009°10'0 0.0
2016-Jun-27 01:32N 38°42' W 009°10'0 0.0
2016-Jun-27 00:31N 38°42' W 009°10'0 0.0
2016-Jun-26 23:33N 38°42' W 009°10'0 0.0
2016-Jun-26 22:33N 38°42' W 009°10'0 0.0
2016-Jun-26 21:32N 38°42' W 009°10'0 0.0
2016-Jun-26 20:33N 38°42' W 009°10'0 0.0
2016-Jun-26 19:33N 38°42' W 009°10'0 0.0
2016-Jun-26 18:33N 38°42' W 009°10'0 0.0
2016-Jun-26 17:33N 38°42' W 009°10'0 0.0
2016-Jun-26 16:33N 38°42' W 009°10'0 0.0
2016-Jun-26 15:30N 38°42' W 009°10'0 0.0
2016-Jun-26 14:33N 38°42' W 009°10'0 0.0
2016-Jun-26 13:32N 38°42' W 009°10'0 0.0
2016-Jun-26 12:32N 38°42' W 009°10'0 0.0
2016-Jun-26 11:33N 38°42' W 009°10'0 0.0
2016-Jun-26 10:33N 38°42' W 009°10'0 0.0
2016-Jun-26 09:32N 38°42' W 009°10'0 0.0
2016-Jun-26 08:28N 38°42' W 009°10'0 0.0
2016-Jun-26 07:30N 38°42' W 009°10'0 0.0
2016-Jun-26 06:32N 38°42' W 009°10'0 0.0
2016-Jun-26 05:33N 38°42' W 009°10'0 0.0
2016-Jun-26 04:33N 38°42' W 009°10'0 0.0
2016-Jun-26 03:33N 38°42' W 009°10'0 0.0
2016-Jun-26 02:20N 38°42' W 009°10'0 0.0
2016-Jun-26 01:32N 38°42' W 009°10'0 0.0
2016-Jun-26 00:32N 38°42' W 009°10'0 0.0
2016-Jun-25 23:30N 38°42' W 009°10'0 0.0
2016-Jun-25 22:31N 38°42' W 009°10'0 0.0
2016-Jun-25 21:33N 38°42' W 009°10'0 0.0
2016-Jun-25 20:29N 38°42' W 009°10'0 0.0
2016-Jun-25 19:33N 38°42' W 009°10'0 0.0
2016-Jun-25 18:32N 38°42' W 009°10'0 0.0
2016-Jun-25 17:33N 38°42' W 009°10'0 0.0
2016-Jun-25 16:32N 38°42' W 009°10'0 0.0
2016-Jun-25 15:28N 38°42' W 009°10'0 0.0
2016-Jun-25 14:33N 38°42' W 009°10'0 0.0
2016-Jun-25 13:32N 38°42' W 009°10'0 0.0
2016-Jun-25 12:31N 38°42' W 009°10'0 0.0
2016-Jun-25 11:33N 38°42' W 009°10'0 0.0
2016-Jun-25 10:31N 38°42' W 009°10'0 0.0
2016-Jun-25 09:30N 38°42' W 009°10'0 0.0
2016-Jun-25 08:33N 38°42' W 009°10'0 0.0
2016-Jun-25 06:30N 38°42' W 009°10'0 0.0
2016-Jun-25 05:30N 38°42' W 009°10'0 0.0
2016-Jun-25 04:33N 38°42' W 009°10'0 0.0
2016-Jun-25 03:33N 38°42' W 009°10'0 0.0
2016-Jun-25 02:32N 38°42' W 009°10'0 0.0
2016-Jun-25 01:27N 38°42' W 009°10'0 0.0
2016-Jun-25 00:24N 38°42' W 009°10'0 0.0
2016-Jun-24 23:32N 38°42' W 009°10'0 0.0
2016-Jun-24 22:31N 38°42' W 009°10'0 0.0
2016-Jun-24 21:31N 38°42' W 009°10'0 0.0
2016-Jun-24 20:33N 38°42' W 009°10'0 0.0
2016-Jun-24 19:33N 38°42' W 009°10'0 0.0
2016-Jun-24 18:32N 38°42' W 009°10'0 0.0
2016-Jun-24 17:31N 38°42' W 009°10'0 0.0
2016-Jun-24 16:31N 38°42' W 009°10'0 0.0
2016-Jun-24 15:30N 38°42' W 009°10'0 0.0
2016-Jun-24 14:33N 38°42' W 009°10'0 0.0
2016-Jun-24 13:32N 38°42' W 009°10'0 0.0
2016-Jun-24 12:27N 38°42' W 009°10'0 0.0
2016-Jun-24 11:31N 38°42' W 009°10'0 0.0
2016-Jun-24 10:33N 38°42' W 009°10'0 0.0
2016-Jun-24 09:31N 38°42' W 009°10'0 0.0
2016-Jun-24 08:32N 38°42' W 009°10'0 0.0
2016-Jun-24 07:27N 38°42' W 009°10'0 0.0
2016-Jun-24 04:32N 38°42' W 009°10'0 0.0
2016-Jun-24 03:33N 38°42' W 009°10'0 0.0
2016-Jun-24 02:33N 38°42' W 009°10'0 0.0
2016-Jun-24 01:30N 38°42' W 009°10'0 0.0
2016-Jun-24 00:33N 38°42' W 009°10'0 0.0
2016-Jun-23 23:29N 38°42' W 009°10'0 0.0
2016-Jun-23 22:30N 38°42' W 009°10'0 0.0
2016-Jun-23 21:27N 38°42' W 009°10'0 0.0
2016-Jun-23 20:31N 38°42' W 009°10'0 0.0
2016-Jun-23 19:32N 38°42' W 009°10'0 0.0
2016-Jun-23 18:31N 38°42' W 009°10'0 0.0
2016-Jun-23 17:31N 38°42' W 009°10'0 0.0
2016-Jun-23 16:33N 38°42' W 009°10'0 0.0
2016-Jun-23 14:28N 38°42' W 009°10'0 0.0
2016-Jun-23 13:33N 38°42' W 009°10'0 0.0
2016-Jun-23 12:33N 38°42' W 009°10'0 0.0
2016-Jun-23 11:33N 38°42' W 009°10'0 0.0
2016-Jun-23 10:29N 38°42' W 009°10'0 0.0
2016-Jun-23 09:27N 38°42' W 009°10'0 0.0
2016-Jun-23 08:33N 38°42' W 009°10'0 0.0
2016-Jun-23 07:29N 38°42' W 009°10'0 0.0
2016-Jun-23 05:32N 38°42' W 009°10'0 0.0
2016-Jun-23 04:29N 38°42' W 009°10'0 0.0
2016-Jun-23 03:32N 38°42' W 009°10'0 0.0
2016-Jun-23 02:33N 38°42' W 009°10'0 0.0
2016-Jun-23 01:29N 38°42' W 009°10'0 0.0
2016-Jun-23 00:31N 38°42' W 009°10'0 0.0
2016-Jun-22 23:32N 38°42' W 009°10'0 0.0
2016-Jun-22 22:27N 38°42' W 009°10'0 0.0
2016-Jun-22 21:31N 38°42' W 009°10'0 0.0
2016-Jun-22 20:33N 38°42' W 009°10'0 0.0
2016-Jun-22 19:33N 38°42' W 009°10'3 3.4
2016-Jun-22 18:33N 38°44' W 009°06'3 3.2
2016-Jun-22 17:33N 38°42' W 009°09'0 0.1
2016-Jun-22 16:33N 38°42' W 009°10'2 1.7
2016-Jun-22 15:33N 38°42' W 009°08'2 1.5
2016-Jun-22 14:33N 38°42' W 009°09'0 0.1
2016-Jun-22 13:30N 38°42' W 009°10'0 0.0
2016-Jun-22 12:33N 38°42' W 009°10'0 0.0
2016-Jun-22 11:30N 38°42' W 009°10'2 2.0
2016-Jun-22 10:33N 38°40' W 009°09'0 0.2
2016-Jun-22 09:33N 38°40' W 009°09'2 2.1
2016-Jun-22 08:32N 38°42' W 009°10'0 0.0
2016-Jun-22 07:32N 38°42' W 009°10'0 0.0
2016-Jun-22 06:33N 38°42' W 009°10'0 0.3
2016-Jun-22 05:33N 38°42' W 009°10'1 1.1
2016-Jun-22 04:33N 38°41' W 009°11'1 1.4
2016-Jun-22 03:33N 38°42' W 009°10'0 0.0
2016-Jun-22 02:32N 38°42' W 009°10'0 0.0
2016-Jun-22 01:33N 38°42' W 009°10'0 0.0
2016-Jun-22 00:33N 38°42' W 009°10'0 0.0
2016-Jun-21 23:32N 38°42' W 009°10'2 2.4
2016-Jun-21 22:33N 38°43' W 009°07'2 1.6
2016-Jun-21 21:33N 38°42' W 009°08'1 0.9
2016-Jun-21 20:32N 38°42' W 009°10'  
Track history (hours):
 
Tides and Currents Weather Stations Pressure Air Temp Water Temp Dewpoint Dewpoint Depression Visibility Wind Speed Wind Dir Waves Ship Positions

Svitzer Leixoes

Last reported at 2016-Jul-01 20:27 UTC. Time now 2016-Jul-01 20:53 UTC.
Position N 38°42' W 009°10'.

Length 28 m; draft 3.6 m.

Type: Towing. MMSI: 263622000.

Date/timePositionNaut miles runAvg speedWind from/ knotsBaromVisibWave heightAir tempDewpointWater temp
2016-Jul-01 20:27N 38°42' W 009°10'0 0.0
2016-Jul-01 19:30N 38°42' W 009°10'3 3.0
2016-Jul-01 18:33N 38°41' W 009°13'2 2.1
2016-Jul-01 17:33N 38°41' W 009°15'5 4.6
2016-Jul-01 16:32N 38°42' W 009°10'0 0.0
2016-Jul-01 15:33N 38°42' W 009°10'0 0.0
2016-Jul-01 14:33N 38°42' W 009°10'0 0.0
2016-Jul-01 13:31N 38°42' W 009°10'0 0.0
2016-Jul-01 12:33N 38°42' W 009°10'0 0.0
2016-Jul-01 11:32N 38°42' W 009°10'0 0.0
2016-Jul-01 10:31N 38°42' W 009°10'0 0.0
2016-Jul-01 09:30N 38°42' W 009°10'0 0.1
2016-Jul-01 08:33N 38°42' W 009°10'1 0.5
2016-Jul-01 07:32N 38°42' W 009°10'1 0.6
2016-Jul-01 06:31N 38°42' W 009°10'0 0.0
2016-Jul-01 05:27N 38°42' W 009°10'0 0.0
2016-Jul-01 04:30N 38°42' W 009°10'0 0.0
2016-Jul-01 03:27N 38°42' W 009°10'0 0.0
2016-Jul-01 02:31N 38°42' W 009°10'0 0.0
2016-Jul-01 01:26N 38°42' W 009°10'0 0.0
2016-Jul-01 00:24N 38°42' W 009°10'0 0.0
2016-Jun-30 23:29N 38°42' W 009°10'0 0.0
2016-Jun-30 22:26N 38°42' W 009°10'0 0.0
2016-Jun-30 21:33N 38°42' W 009°10'0 0.0
2016-Jun-30 20:33N 38°42' W 009°10'0 0.0
2016-Jun-30 19:22N 38°42' W 009°10'0 0.0
2016-Jun-30 18:27N 38°42' W 009°10'0 0.0
2016-Jun-30 17:30N 38°42' W 009°10'2 2.0
2016-Jun-30 16:33N 38°40' W 009°09'2 1.9
2016-Jun-30 15:32N 38°42' W 009°10'0 0.0
2016-Jun-30 14:32N 38°42' W 009°10'0 0.0
2016-Jun-30 13:29N 38°42' W 009°10'0 0.0
2016-Jun-30 12:32N 38°42' W 009°10'0 0.0
2016-Jun-30 11:33N 38°42' W 009°10'0 0.0
2016-Jun-30 10:28N 38°42' W 009°10'0 0.0
2016-Jun-30 09:33N 38°42' W 009°10'0 0.0
2016-Jun-30 08:33N 38°42' W 009°10'0 0.0
2016-Jun-30 07:33N 38°42' W 009°10'2 1.5
2016-Jun-30 06:33N 38°42' W 009°08'0 0.3
2016-Jun-30 05:33N 38°42' W 009°07'2 1.6
2016-Jun-30 04:29N 38°42' W 009°10'0 0.0
2016-Jun-30 03:31N 38°42' W 009°10'0 0.0
2016-Jun-30 02:32N 38°42' W 009°10'0 0.0
2016-Jun-30 01:33N 38°42' W 009°10'0 0.0
2016-Jun-30 00:33N 38°42' W 009°10'0 0.0
2016-Jun-29 23:33N 38°42' W 009°10'0 0.0
2016-Jun-29 22:29N 38°42' W 009°10'4 3.9
2016-Jun-29 21:33N 38°41' W 009°14'4 3.8
2016-Jun-29 20:33N 38°42' W 009°09'0 0.1
2016-Jun-29 19:33N 38°42' W 009°10'0 0.0
2016-Jun-29 18:33N 38°42' W 009°10'0 0.0
2016-Jun-29 17:33N 38°42' W 009°10'0 0.0
2016-Jun-29 16:33N 38°42' W 009°10'0 0.0
2016-Jun-29 15:32N 38°42' W 009°10'0 0.0
2016-Jun-29 14:31N 38°42' W 009°10'0 0.0
2016-Jun-29 13:33N 38°42' W 009°10'0 0.0
2016-Jun-29 12:29N 38°42' W 009°10'0 0.0
2016-Jun-29 11:33N 38°42' W 009°10'2 1.8
2016-Jun-29 10:33N 38°41' W 009°11'1 1.1
2016-Jun-29 09:33N 38°41' W 009°12'2 2.5
2016-Jun-29 08:33N 38°42' W 009°10'0 0.0
2016-Jun-29 07:32N 38°42' W 009°10'0 0.0
2016-Jun-29 06:29N 38°42' W 009°10'0 0.0
2016-Jun-29 05:33N 38°42' W 009°10'0 0.0
2016-Jun-29 04:32N 38°42' W 009°10'0 0.0
2016-Jun-29 03:33N 38°42' W 009°10'0 0.0
2016-Jun-29 02:32N 38°42' W 009°10'0 0.0
2016-Jun-29 01:33N 38°42' W 009°10'0 0.0
2016-Jun-29 00:29N 38°42' W 009°10'0 0.0
2016-Jun-28 23:32N 38°42' W 009°10'0 0.0
2016-Jun-28 22:29N 38°42' W 009°10'0 0.0
2016-Jun-28 21:32N 38°42' W 009°10'0 0.0
2016-Jun-28 20:33N 38°42' W 009°10'0 0.0
2016-Jun-28 19:33N 38°42' W 009°10'0 0.0
2016-Jun-28 18:33N 38°42' W 009°10'0 0.0
2016-Jun-28 17:32N 38°42' W 009°10'0 0.0
2016-Jun-28 16:22N 38°42' W 009°10'0 0.0
2016-Jun-28 15:29N 38°42' W 009°10'0 0.0
2016-Jun-28 14:33N 38°42' W 009°10'0 0.0
2016-Jun-28 13:31N 38°42' W 009°10'0 0.0
2016-Jun-28 12:28N 38°42' W 009°10'0 0.0
2016-Jun-28 11:33N 38°42' W 009°10'0 0.0
2016-Jun-28 10:33N 38°42' W 009°10'0 0.0
2016-Jun-28 09:28N 38°42' W 009°10'0 0.0
2016-Jun-28 08:33N 38°42' W 009°10'1 0.7
2016-Jun-28 07:33N 38°42' W 009°10'0 0.4
2016-Jun-28 06:32N 38°42' W 009°10'0 0.2
2016-Jun-28 04:32N 38°42' W 009°10'0 0.0
2016-Jun-28 03:33N 38°42' W 009°10'0 0.0
2016-Jun-28 02:31N 38°42' W 009°10'0 0.0
2016-Jun-28 01:33N 38°42' W 009°10'0 0.0
2016-Jun-28 00:29N 38°42' W 009°10'4 4.2
2016-Jun-27 23:33N 38°41' W 009°14'2 1.7
2016-Jun-27 22:33N 38°41' W 009°12'2 2.3
2016-Jun-27 21:33N 38°42' W 009°10'0 0.0
2016-Jun-27 20:33N 38°42' W 009°10'3 2.7
2016-Jun-27 19:33N 38°41' W 009°13'3 2.6
2016-Jun-27 18:33N 38°42' W 009°10'0 0.0
2016-Jun-27 17:27N 38°42' W 009°10'0 0.0
2016-Jun-27 16:30N 38°42' W 009°10'0 0.0
2016-Jun-27 15:33N 38°42' W 009°10'0 0.0
2016-Jun-27 14:33N 38°42' W 009°10'0 0.0
2016-Jun-27 13:33N 38°42' W 009°10'0 0.0
2016-Jun-27 12:33N 38°42' W 009°10'0 0.0
2016-Jun-27 11:31N 38°42' W 009°10'0 0.0
2016-Jun-27 10:19N 38°42' W 009°10'0 0.0
2016-Jun-27 09:30N 38°42' W 009°10'0 0.1
2016-Jun-27 08:33N 38°42' W 009°09'5 4.6
2016-Jun-27 07:33N 38°41' W 009°04'3 3.4
2016-Jun-27 06:33N 38°41' W 009°08'2 1.5
2016-Jun-27 05:30N 38°42' W 009°10'0 0.0
2016-Jun-27 04:33N 38°42' W 009°10'0 0.0
2016-Jun-27 03:31N 38°42' W 009°10'0 0.0
2016-Jun-27 02:33N 38°42' W 009°10'0 0.0
2016-Jun-27 01:32N 38°42' W 009°10'0 0.0
2016-Jun-27 00:31N 38°42' W 009°10'0 0.0
2016-Jun-26 23:33N 38°42' W 009°10'0 0.0
2016-Jun-26 22:33N 38°42' W 009°10'0 0.0
2016-Jun-26 21:32N 38°42' W 009°10'0 0.0
2016-Jun-26 20:33N 38°42' W 009°10'0 0.0
2016-Jun-26 19:33N 38°42' W 009°10'0 0.0
2016-Jun-26 18:33N 38°42' W 009°10'0 0.0
2016-Jun-26 17:33N 38°42' W 009°10'0 0.0
2016-Jun-26 16:33N 38°42' W 009°10'0 0.0
2016-Jun-26 15:30N 38°42' W 009°10'0 0.0
2016-Jun-26 14:33N 38°42' W 009°10'0 0.0
2016-Jun-26 13:32N 38°42' W 009°10'0 0.0
2016-Jun-26 12:32N 38°42' W 009°10'0 0.0
2016-Jun-26 11:33N 38°42' W 009°10'0 0.0
2016-Jun-26 10:33N 38°42' W 009°10'0 0.0
2016-Jun-26 09:32N 38°42' W 009°10'0 0.0
2016-Jun-26 08:28N 38°42' W 009°10'0 0.0
2016-Jun-26 07:30N 38°42' W 009°10'0 0.0
2016-Jun-26 06:32N 38°42' W 009°10'0 0.0
2016-Jun-26 05:33N 38°42' W 009°10'0 0.0
2016-Jun-26 04:33N 38°42' W 009°10'0 0.0
2016-Jun-26 03:33N 38°42' W 009°10'0 0.0
2016-Jun-26 02:20N 38°42' W 009°10'0 0.0
2016-Jun-26 01:32N 38°42' W 009°10'0 0.0
2016-Jun-26 00:32N 38°42' W 009°10'0 0.0
2016-Jun-25 23:30N 38°42' W 009°10'0 0.0
2016-Jun-25 22:31N 38°42' W 009°10'0 0.0
2016-Jun-25 21:33N 38°42' W 009°10'0 0.0
2016-Jun-25 20:29N 38°42' W 009°10'0 0.0
2016-Jun-25 19:33N 38°42' W 009°10'0 0.0
2016-Jun-25 18:32N 38°42' W 009°10'0 0.0
2016-Jun-25 17:33N 38°42' W 009°10'0 0.0
2016-Jun-25 16:32N 38°42' W 009°10'0 0.0
2016-Jun-25 15:28N 38°42' W 009°10'0 0.0
2016-Jun-25 14:33N 38°42' W 009°10'0 0.0
2016-Jun-25 13:32N 38°42' W 009°10'0 0.0
2016-Jun-25 12:31N 38°42' W 009°10'0 0.0
2016-Jun-25 11:33N 38°42' W 009°10'0 0.0
2016-Jun-25 10:31N 38°42' W 009°10'0 0.0
2016-Jun-25 09:30N 38°42' W 009°10'0 0.0
2016-Jun-25 08:33N 38°42' W 009°10'0 0.0
2016-Jun-25 06:30N 38°42' W 009°10'0 0.0
2016-Jun-25 05:30N 38°42' W 009°10'0 0.0
2016-Jun-25 04:33N 38°42' W 009°10'0 0.0
2016-Jun-25 03:33N 38°42' W 009°10'0 0.0
2016-Jun-25 02:32N 38°42' W 009°10'0 0.0
2016-Jun-25 01:27N 38°42' W 009°10'0 0.0
2016-Jun-25 00:24N 38°42' W 009°10'0 0.0
2016-Jun-24 23:32N 38°42' W 009°10'0 0.0
2016-Jun-24 22:31N 38°42' W 009°10'0 0.0
2016-Jun-24 21:31N 38°42' W 009°10'0 0.0
2016-Jun-24 20:33N 38°42' W 009°10'0 0.0
2016-Jun-24 19:33N 38°42' W 009°10'0 0.0
2016-Jun-24 18:32N 38°42' W 009°10'0 0.0
2016-Jun-24 17:31N 38°42' W 009°10'0 0.0
2016-Jun-24 16:31N 38°42' W 009°10'0 0.0
2016-Jun-24 15:30N 38°42' W 009°10'0 0.0
2016-Jun-24 14:33N 38°42' W 009°10'0 0.0
2016-Jun-24 13:32N 38°42' W 009°10'0 0.0
2016-Jun-24 12:27N 38°42' W 009°10'0 0.0
2016-Jun-24 11:31N 38°42' W 009°10'0 0.0
2016-Jun-24 10:33N 38°42' W 009°10'0 0.0
2016-Jun-24 09:31N 38°42' W 009°10'0 0.0
2016-Jun-24 08:32N 38°42' W 009°10'0 0.0
2016-Jun-24 07:27N 38°42' W 009°10'0 0.0
2016-Jun-24 04:32N 38°42' W 009°10'0 0.0
2016-Jun-24 03:33N 38°42' W 009°10'0 0.0
2016-Jun-24 02:33N 38°42' W 009°10'0 0.0
2016-Jun-24 01:30N 38°42' W 009°10'0 0.0
2016-Jun-24 00:33N 38°42' W 009°10'0 0.0
2016-Jun-23 23:29N 38°42' W 009°10'0 0.0
2016-Jun-23 22:30N 38°42' W 009°10'0 0.0
2016-Jun-23 21:27N 38°42' W 009°10'0 0.0
2016-Jun-23 20:31N 38°42' W 009°10'0 0.0
2016-Jun-23 19:32N 38°42' W 009°10'0 0.0
2016-Jun-23 18:31N 38°42' W 009°10'0 0.0
2016-Jun-23 17:31N 38°42' W 009°10'0 0.0
2016-Jun-23 16:33N 38°42' W 009°10'0 0.0
2016-Jun-23 14:28N 38°42' W 009°10'0 0.0
2016-Jun-23 13:33N 38°42' W 009°10'0 0.0
2016-Jun-23 12:33N 38°42' W 009°10'0 0.0
2016-Jun-23 11:33N 38°42' W 009°10'0 0.0
2016-Jun-23 10:29N 38°42' W 009°10'0 0.0
2016-Jun-23 09:27N 38°42' W 009°10'0 0.0
2016-Jun-23 08:33N 38°42' W 009°10'0 0.0
2016-Jun-23 07:29N 38°42' W 009°10'0 0.0
2016-Jun-23 05:32N 38°42' W 009°10'0 0.0
2016-Jun-23 04:29N 38°42' W 009°10'0 0.0
2016-Jun-23 03:32N 38°42' W 009°10'0 0.0
2016-Jun-23 02:33N 38°42' W 009°10'0 0.0
2016-Jun-23 01:29N 38°42' W 009°10'0 0.0
2016-Jun-23 00:31N 38°42' W 009°10'0 0.0
2016-Jun-22 23:32N 38°42' W 009°10'0 0.0
2016-Jun-22 22:27N 38°42' W 009°10'0 0.0
2016-Jun-22 21:31N 38°42' W 009°10'0 0.0
2016-Jun-22 20:33N 38°42' W 009°10'0 0.0
2016-Jun-22 19:33N 38°42' W 009°10'3 3.4
2016-Jun-22 18:33N 38°44' W 009°06'3 3.2
2016-Jun-22 17:33N 38°42' W 009°09'0 0.1
2016-Jun-22 16:33N 38°42' W 009°10'2 1.7
2016-Jun-22 15:33N 38°42' W 009°08'2 1.5
2016-Jun-22 14:33N 38°42' W 009°09'0 0.1
2016-Jun-22 13:30N 38°42' W 009°10'0 0.0
2016-Jun-22 12:33N 38°42' W 009°10'0 0.0
2016-Jun-22 11:30N 38°42' W 009°10'2 2.0
2016-Jun-22 10:33N 38°40' W 009°09'0 0.2
2016-Jun-22 09:33N 38°40' W 009°09'2 2.1
2016-Jun-22 08:32N 38°42' W 009°10'0 0.0
2016-Jun-22 07:32N 38°42' W 009°10'0 0.0
2016-Jun-22 06:33N 38°42' W 009°10'0 0.3
2016-Jun-22 05:33N 38°42' W 009°10'1 1.1
2016-Jun-22 04:33N 38°41' W 009°11'1 1.4
2016-Jun-22 03:33N 38°42' W 009°10'0 0.0
2016-Jun-22 02:32N 38°42' W 009°10'0 0.0
2016-Jun-22 01:33N 38°42' W 009°10'0 0.0
2016-Jun-22 00:33N 38°42' W 009°10'0 0.0
2016-Jun-21 23:32N 38°42' W 009°10'2 2.4
2016-Jun-21 22:33N 38°43' W 009°07'2 1.6
2016-Jun-21 21:33N 38°42' W 009°08'1 0.9
2016-Jun-21 20:32N 38°42' W 009°10'  

Dump ship's entire track history